sensor_id;sensor_type;location;lat;lon;timestamp;pressure;altitude;pressure_sealevel;temperature;humidity
57644;BME280;43474;46.510;6.686;2022-10-30T00:00:12;97073.84;;;11.28;100.00
57644;BME280;43474;46.510;6.686;2022-10-30T00:02:58;97069.41;;;11.41;100.00
57644;BME280;43474;46.510;6.686;2022-10-30T00:05:24;97078.81;;;11.55;100.00
57644;BME280;43474;46.510;6.686;2022-10-30T00:07:49;97074.75;;;11.52;100.00
57644;BME280;43474;46.510;6.686;2022-10-30T00:10:16;97080.91;;;11.34;100.00
57644;BME280;43474;46.510;6.686;2022-10-30T00:12:42;97076.19;;;11.36;100.00
57644;BME280;43474;46.510;6.686;2022-10-30T00:15:08;97041.72;;;11.18;100.00
57644;BME280;43474;46.510;6.686;2022-10-30T00:17:34;97064.66;;;11.12;100.00
57644;BME280;43474;46.510;6.686;2022-10-30T00:20:00;97077.75;;;11.26;100.00
57644;BME280;43474;46.510;6.686;2022-10-30T00:22:25;97043.63;;;10.99;100.00
57644;BME280;43474;46.510;6.686;2022-10-30T00:24:51;97073.78;;;11.17;100.00
57644;BME280;43474;46.510;6.686;2022-10-30T00:27:17;97050.16;;;11.15;100.00
57644;BME280;43474;46.510;6.686;2022-10-30T00:29:42;97035.31;;;10.96;100.00
57644;BME280;43474;46.510;6.686;2022-10-30T00:32:08;97048.44;;;11.21;100.00
57644;BME280;43474;46.510;6.686;2022-10-30T00:34:33;97058.41;;;11.37;100.00
57644;BME280;43474;46.510;6.686;2022-10-30T00:36:59;97050.47;;;11.37;100.00
57644;BME280;43474;46.510;6.686;2022-10-30T00:39:25;97056.38;;;11.39;100.00
57644;BME280;43474;46.510;6.686;2022-10-30T00:41:50;97049.56;;;11.43;100.00
57644;BME280;43474;46.510;6.686;2022-10-30T00:44:35;97064.34;;;11.51;100.00
57644;BME280;43474;46.510;6.686;2022-10-30T00:47:05;97064.94;;;11.53;100.00
57644;BME280;43474;46.510;6.686;2022-10-30T00:49:34;97068.84;;;11.50;100.00
57644;BME280;43474;46.510;6.686;2022-10-30T00:52:04;97064.34;;;11.51;100.00
57644;BME280;43474;46.510;6.686;2022-10-30T00:54:33;97029.88;;;11.21;100.00
57644;BME280;43474;46.510;6.686;2022-10-30T00:57:01;97059.91;;;11.33;100.00
57644;BME280;43474;46.510;6.686;2022-10-30T00:59:29;97067.78;;;11.39;100.00
57644;BME280;43474;46.510;6.686;2022-10-30T01:01:57;97067.91;;;11.45;100.00
57644;BME280;43474;46.510;6.686;2022-10-30T01:04:25;97051.47;;;11.24;100.00
57644;BME280;43474;46.510;6.686;2022-10-30T01:06:51;97052.03;;;11.26;100.00
57644;BME280;43474;46.510;6.686;2022-10-30T01:09:21;97057.63;;;11.36;100.00
57644;BME280;43474;46.510;6.686;2022-10-30T01:11:47;97046.50;;;11.28;100.00
57644;BME280;43474;46.510;6.686;2022-10-30T01:14:16;97062.13;;;11.36;100.00
57644;BME280;43474;46.510;6.686;2022-10-30T01:21:57;97067.19;;;11.37;100.00
57644;BME280;43474;46.510;6.686;2022-10-30T01:27:24;97066.16;;;11.38;100.00
57644;BME280;43474;46.510;6.686;2022-10-30T01:30:07;97064.91;;;11.41;100.00
57644;BME280;43474;46.510;6.686;2022-10-30T01:35:48;97054.97;;;11.36;100.00
57644;BME280;43474;46.510;6.686;2022-10-30T01:40:43;97036.00;;;11.21;100.00
57644;BME280;43474;46.510;6.686;2022-10-30T01:43:09;97058.97;;;11.27;100.00
57644;BME280;43474;46.510;6.686;2022-10-30T01:53:57;97050.97;;;11.16;100.00
57644;BME280;43474;46.510;6.686;2022-10-30T01:56:38;97022.56;;;10.86;100.00
57644;BME280;43474;46.510;6.686;2022-10-30T01:59:25;97042.94;;;11.04;100.00
57644;BME280;43474;46.510;6.686;2022-10-30T02:01:54;97025.38;;;10.91;100.00
57644;BME280;43474;46.510;6.686;2022-10-30T02:04:20;97030.09;;;10.89;100.00
57644;BME280;43474;46.510;6.686;2022-10-30T02:06:46;97027.78;;;10.93;100.00
57644;BME280;43474;46.510;6.686;2022-10-30T02:09:14;97029.75;;;10.97;100.00
57644;BME280;43474;46.510;6.686;2022-10-30T02:11:40;97028.78;;;10.80;100.00
57644;BME280;43474;46.510;6.686;2022-10-30T02:14:08;97029.91;;;10.84;100.00
57644;BME280;43474;46.510;6.686;2022-10-30T02:16:38;97027.66;;;10.87;100.00
57644;BME280;43474;46.510;6.686;2022-10-30T02:19:06;97026.16;;;10.92;100.00
57644;BME280;43474;46.510;6.686;2022-10-30T02:21:31;97020.91;;;11.03;100.00
57644;BME280;43474;46.510;6.686;2022-10-30T02:23:57;97008.31;;;10.99;100.00
57644;BME280;43474;46.510;6.686;2022-10-30T02:26:22;96983.25;;;10.83;100.00
57644;BME280;43474;46.510;6.686;2022-10-30T02:28:48;96981.25;;;10.78;100.00
57644;BME280;43474;46.510;6.686;2022-10-30T02:31:13;96979.22;;;10.62;100.00
57644;BME280;43474;46.510;6.686;2022-10-30T02:33:44;97005.72;;;10.80;100.00
57644;BME280;43474;46.510;6.686;2022-10-30T02:36:09;97008.28;;;10.69;100.00
57644;BME280;43474;46.510;6.686;2022-10-30T02:38:35;97008.59;;;10.60;100.00
57644;BME280;43474;46.510;6.686;2022-10-30T02:41:01;97020.91;;;10.55;100.00
57644;BME280;43474;46.510;6.686;2022-10-30T02:43:26;96955.75;;;10.29;100.00
57644;BME280;43474;46.510;6.686;2022-10-30T02:45:51;97013.53;;;10.57;100.00
57644;BME280;43474;46.510;6.686;2022-10-30T02:48:17;97000.50;;;10.55;100.00
57644;BME280;43474;46.510;6.686;2022-10-30T02:50:43;97014.44;;;10.69;100.00
57644;BME280;43474;46.510;6.686;2022-10-30T02:53:08;97005.28;;;10.65;100.00
57644;BME280;43474;46.510;6.686;2022-10-30T02:55:34;96997.81;;;10.74;100.00
57644;BME280;43474;46.510;6.686;2022-10-30T02:57:59;96969.94;;;10.53;100.00
57644;BME280;43474;46.510;6.686;2022-10-30T03:00:25;96969.28;;;10.57;100.00
57644;BME280;43474;46.510;6.686;2022-10-30T03:02:54;96995.41;;;10.72;100.00
57644;BME280;43474;46.510;6.686;2022-10-30T03:05:20;97004.78;;;10.75;100.00
57644;BME280;43474;46.510;6.686;2022-10-30T03:07:46;96998.66;;;10.74;100.00
57644;BME280;43474;46.510;6.686;2022-10-30T03:10:13;96966.50;;;10.52;100.00
57644;BME280;43474;46.510;6.686;2022-10-30T03:12:39;96997.75;;;10.80;100.00
57644;BME280;43474;46.510;6.686;2022-10-30T03:15:05;96991.38;;;10.70;100.00
57644;BME280;43474;46.510;6.686;2022-10-30T03:17:31;97009.56;;;10.66;100.00
57644;BME280;43474;46.510;6.686;2022-10-30T03:19:56;96997.25;;;10.53;100.00
57644;BME280;43474;46.510;6.686;2022-10-30T03:22:22;97001.75;;;10.53;100.00
57644;BME280;43474;46.510;6.686;2022-10-30T03:24:48;97003.97;;;10.56;100.00
57644;BME280;43474;46.510;6.686;2022-10-30T03:27:13;96943.06;;;10.13;100.00
57644;BME280;43474;46.510;6.686;2022-10-30T03:29:39;97012.06;;;10.61;100.00
57644;BME280;43474;46.510;6.686;2022-10-30T03:32:08;96951.59;;;10.40;100.00
57644;BME280;43474;46.510;6.686;2022-10-30T03:34:35;97004.78;;;10.75;100.00
57644;BME280;43474;46.510;6.686;2022-10-30T03:37:00;96982.91;;;10.61;100.00
57644;BME280;43474;46.510;6.686;2022-10-30T03:39:26;96971.13;;;10.57;100.00
57644;BME280;43474;46.510;6.686;2022-10-30T03:41:51;97005.50;;;10.82;100.00
57644;BME280;43474;46.510;6.686;2022-10-30T03:44:17;97002.25;;;10.80;100.00
57644;BME280;43474;46.510;6.686;2022-10-30T03:46:43;97012.19;;;10.84;100.00
57644;BME280;43474;46.510;6.686;2022-10-30T03:49:08;96978.66;;;10.60;100.00
57644;BME280;43474;46.510;6.686;2022-10-30T03:51:33;97009.41;;;10.79;100.00
57644;BME280;43474;46.510;6.686;2022-10-30T03:53:59;97019.69;;;10.87;100.00
57644;BME280;43474;46.510;6.686;2022-10-30T03:56:24;97026.59;;;10.88;100.00
57644;BME280;43474;46.510;6.686;2022-10-30T03:58:50;97007.25;;;10.88;100.00
57644;BME280;43474;46.510;6.686;2022-10-30T04:01:16;97025.94;;;10.93;100.00
57644;BME280;43474;46.510;6.686;2022-10-30T04:03:41;96990.56;;;10.69;100.00
57644;BME280;43474;46.510;6.686;2022-10-30T04:06:07;97026.97;;;10.92;100.00
57644;BME280;43474;46.510;6.686;2022-10-30T04:08:33;96966.97;;;10.49;100.00
57644;BME280;43474;46.510;6.686;2022-10-30T04:10:58;97033.28;;;10.79;100.00
57644;BME280;43474;46.510;6.686;2022-10-30T04:13:24;97020.44;;;10.76;100.00
57644;BME280;43474;46.510;6.686;2022-10-30T04:15:49;97032.75;;;10.89;100.00
57644;BME280;43474;46.510;6.686;2022-10-30T04:18:15;97041.94;;;10.86;100.00
57644;BME280;43474;46.510;6.686;2022-10-30T04:20:42;97047.47;;;10.85;100.00
57644;BME280;43474;46.510;6.686;2022-10-30T04:23:12;97047.09;;;10.81;100.00
57644;BME280;43474;46.510;6.686;2022-10-30T04:25:39;97032.00;;;10.82;100.00
57644;BME280;43474;46.510;6.686;2022-10-30T04:28:05;97046.94;;;10.95;100.00
57644;BME280;43474;46.510;6.686;2022-10-30T04:30:30;97023.53;;;10.73;100.00
57644;BME280;43474;46.510;6.686;2022-10-30T04:33:01;97041.56;;;10.83;100.00
57644;BME280;43474;46.510;6.686;2022-10-30T04:35:29;97005.22;;;10.53;100.00
57644;BME280;43474;46.510;6.686;2022-10-30T04:38:02;97005.28;;;10.47;100.00
57644;BME280;43474;46.510;6.686;2022-10-30T04:40:31;96988.69;;;10.40;100.00
57644;BME280;43474;46.510;6.686;2022-10-30T04:42:57;97042.97;;;10.67;100.00
57644;BME280;43474;46.510;6.686;2022-10-30T04:45:23;97035.53;;;10.57;100.00
57644;BME280;43474;46.510;6.686;2022-10-30T04:47:49;97019.94;;;10.31;100.00
57644;BME280;43474;46.510;6.686;2022-10-30T04:50:15;96998.84;;;10.18;100.00
57644;BME280;43474;46.510;6.686;2022-10-30T04:52:40;97008.84;;;10.16;100.00
57644;BME280;43474;46.510;6.686;2022-10-30T04:55:07;97038.25;;;10.32;100.00
57644;BME280;43474;46.510;6.686;2022-10-30T04:57:33;97014.88;;;10.23;100.00
57644;BME280;43474;46.510;6.686;2022-10-30T04:59:59;97040.09;;;10.32;100.00
57644;BME280;43474;46.510;6.686;2022-10-30T05:02:25;97015.84;;;10.10;100.00
57644;BME280;43474;46.510;6.686;2022-10-30T05:04:50;97046.50;;;10.43;100.00
57644;BME280;43474;46.510;6.686;2022-10-30T05:07:17;97044.38;;;10.51;100.00
57644;BME280;43474;46.510;6.686;2022-10-30T05:09:42;97034.22;;;10.48;100.00
57644;BME280;43474;46.510;6.686;2022-10-30T05:12:09;97044.75;;;10.55;100.00
57644;BME280;43474;46.510;6.686;2022-10-30T05:14:36;97002.44;;;10.30;100.00
57644;BME280;43474;46.510;6.686;2022-10-30T05:17:02;97013.19;;;10.35;100.00
57644;BME280;43474;46.510;6.686;2022-10-30T05:19:27;97037.91;;;10.47;100.00
57644;BME280;43474;46.510;6.686;2022-10-30T05:21:53;97031.66;;;10.42;100.00
57644;BME280;43474;46.510;6.686;2022-10-30T05:24:18;97007.16;;;10.21;100.00
57644;BME280;43474;46.510;6.686;2022-10-30T05:26:44;96994.19;;;10.13;100.00
57644;BME280;43474;46.510;6.686;2022-10-30T05:29:10;97035.91;;;10.43;100.00
57644;BME280;43474;46.510;6.686;2022-10-30T05:31:36;97032.38;;;10.30;100.00
57644;BME280;43474;46.510;6.686;2022-10-30T05:34:02;97038.25;;;10.32;100.00
57644;BME280;43474;46.510;6.686;2022-10-30T05:36:27;97034.00;;;10.31;100.00
57644;BME280;43474;46.510;6.686;2022-10-30T05:38:53;97023.06;;;10.21;100.00
57644;BME280;43474;46.510;6.686;2022-10-30T05:41:18;97022.25;;;10.21;100.00
57644;BME280;43474;46.510;6.686;2022-10-30T05:43:44;97016.34;;;10.25;100.00
57644;BME280;43474;46.510;6.686;2022-10-30T05:46:09;97027.66;;;10.32;100.00
57644;BME280;43474;46.510;6.686;2022-10-30T05:48:35;97014.31;;;10.21;100.00
57644;BME280;43474;46.510;6.686;2022-10-30T05:51:00;96998.53;;;10.07;100.00
57644;BME280;43474;46.510;6.686;2022-10-30T05:53:26;96959.25;;;9.61;100.00
57644;BME280;43474;46.510;6.686;2022-10-30T05:55:55;97027.25;;;9.86;100.00
57644;BME280;43474;46.510;6.686;2022-10-30T05:58:22;97029.03;;;9.92;100.00
57644;BME280;43474;46.510;6.686;2022-10-30T06:00:48;97029.78;;;9.99;100.00
57644;BME280;43474;46.510;6.686;2022-10-30T06:03:13;97026.47;;;10.03;100.00
57644;BME280;43474;46.510;6.686;2022-10-30T06:05:39;97022.88;;;9.98;100.00
57644;BME280;43474;46.510;6.686;2022-10-30T06:08:05;97038.03;;;10.09;100.00
57644;BME280;43474;46.510;6.686;2022-10-30T06:10:32;97032.22;;;10.00;100.00
57644;BME280;43474;46.510;6.686;2022-10-30T06:12:59;97029.19;;;9.97;100.00
57644;BME280;43474;46.510;6.686;2022-10-30T06:15:26;97043.00;;;9.99;100.00
57644;BME280;43474;46.510;6.686;2022-10-30T06:17:52;97043.81;;;9.99;100.00
57644;BME280;43474;46.510;6.686;2022-10-30T06:20:19;97040.09;;;10.07;100.00
57644;BME280;43474;46.510;6.686;2022-10-30T06:22:55;97051.72;;;10.06;100.00
57644;BME280;43474;46.510;6.686;2022-10-30T06:25:21;97044.31;;;10.15;100.00
57644;BME280;43474;46.510;6.686;2022-10-30T06:27:46;97037.34;;;10.20;100.00
57644;BME280;43474;46.510;6.686;2022-10-30T06:30:12;97002.44;;;10.05;100.00
57644;BME280;43474;46.510;6.686;2022-10-30T06:32:38;97048.84;;;10.32;100.00
57644;BME280;43474;46.510;6.686;2022-10-30T06:35:03;97043.47;;;10.39;100.00
57644;BME280;43474;46.510;6.686;2022-10-30T06:37:29;97045.13;;;10.40;100.00
57644;BME280;43474;46.510;6.686;2022-10-30T06:39:55;97042.00;;;10.43;100.00
57644;BME280;43474;46.510;6.686;2022-10-30T06:42:20;97041.66;;;10.40;100.00
57644;BME280;43474;46.510;6.686;2022-10-30T06:44:46;96997.50;;;10.08;100.00
57644;BME280;43474;46.510;6.686;2022-10-30T06:47:14;97012.09;;;10.18;100.00
57644;BME280;43474;46.510;6.686;2022-10-30T06:49:39;97054.56;;;10.54;100.00
57644;BME280;43474;46.510;6.686;2022-10-30T06:52:05;97046.22;;;10.51;100.00
57644;BME280;43474;46.510;6.686;2022-10-30T06:54:30;97054.47;;;10.79;100.00
57644;BME280;43474;46.510;6.686;2022-10-30T06:56:58;97054.25;;;10.99;100.00
57644;BME280;43474;46.510;6.686;2022-10-30T06:59:24;97037.63;;;11.04;100.00
57644;BME280;43474;46.510;6.686;2022-10-30T07:01:50;97058.25;;;11.20;100.00
57644;BME280;43474;46.510;6.686;2022-10-30T07:04:16;97063.28;;;11.40;100.00
57644;BME280;43474;46.510;6.686;2022-10-30T07:06:41;97048.31;;;11.46;100.00
57644;BME280;43474;46.510;6.686;2022-10-30T07:09:07;96995.25;;;11.16;100.00
57644;BME280;43474;46.510;6.686;2022-10-30T07:11:32;97055.47;;;11.57;100.00
57644;BME280;43474;46.510;6.686;2022-10-30T07:13:58;97055.53;;;11.69;100.00
57644;BME280;43474;46.510;6.686;2022-10-30T07:16:23;97057.28;;;11.75;100.00
57644;BME280;43474;46.510;6.686;2022-10-30T07:18:50;97055.34;;;11.82;100.00
57644;BME280;43474;46.510;6.686;2022-10-30T07:21:15;97058.34;;;11.97;100.00
57644;BME280;43474;46.510;6.686;2022-10-30T07:23:41;97053.63;;;12.11;100.00
57644;BME280;43474;46.510;6.686;2022-10-30T07:26:07;97043.50;;;12.20;100.00
57644;BME280;43474;46.510;6.686;2022-10-30T07:28:32;97053.97;;;12.38;100.00
57644;BME280;43474;46.510;6.686;2022-10-30T07:30:58;97059.38;;;12.66;100.00
57644;BME280;43474;46.510;6.686;2022-10-30T07:33:23;97056.25;;;13.22;100.00
57644;BME280;43474;46.510;6.686;2022-10-30T07:35:49;97030.66;;;13.78;100.00
57644;BME280;43474;46.510;6.686;2022-10-30T07:38:15;96992.13;;;13.85;100.00
57644;BME280;43474;46.510;6.686;2022-10-30T07:40:42;97036.97;;;14.44;100.00
57644;BME280;43474;46.510;6.686;2022-10-30T07:43:08;97039.66;;;14.83;100.00
57644;BME280;43474;46.510;6.686;2022-10-30T07:45:38;97000.97;;;14.85;100.00
57644;BME280;43474;46.510;6.686;2022-10-30T07:48:04;97038.78;;;15.26;100.00
57644;BME280;43474;46.510;6.686;2022-10-30T07:50:30;97010.38;;;15.37;100.00
57644;BME280;43474;46.510;6.686;2022-10-30T07:52:55;97013.88;;;15.69;100.00
57644;BME280;43474;46.510;6.686;2022-10-30T07:55:21;97026.69;;;15.67;100.00
57644;BME280;43474;46.510;6.686;2022-10-30T07:57:47;97033.47;;;15.53;100.00
57644;BME280;43474;46.510;6.686;2022-10-30T08:00:13;97046.34;;;15.61;100.00
57644;BME280;43474;46.510;6.686;2022-10-30T08:02:40;97048.66;;;15.74;100.00
57644;BME280;43474;46.510;6.686;2022-10-30T08:05:06;97047.06;;;15.46;100.00
57644;BME280;43474;46.510;6.686;2022-10-30T08:07:34;97044.41;;;15.24;100.00
57644;BME280;43474;46.510;6.686;2022-10-30T08:10:00;97014.59;;;15.11;100.00
57644;BME280;43474;46.510;6.686;2022-10-30T08:12:26;97053.16;;;15.20;100.00
57644;BME280;43474;46.510;6.686;2022-10-30T08:14:52;97010.19;;;15.21;100.00
57644;BME280;43474;46.510;6.686;2022-10-30T08:17:18;97008.41;;;15.27;100.00
57644;BME280;43474;46.510;6.686;2022-10-30T08:19:44;97022.03;;;15.58;100.00
57644;BME280;43474;46.510;6.686;2022-10-30T08:22:10;97036.44;;;15.84;100.00
57644;BME280;43474;46.510;6.686;2022-10-30T08:24:36;97004.31;;;15.46;100.00
57644;BME280;43474;46.510;6.686;2022-10-30T08:27:02;97045.63;;;15.66;100.00
57644;BME280;43474;46.510;6.686;2022-10-30T08:29:28;97047.53;;;15.43;100.00
57644;BME280;43474;46.510;6.686;2022-10-30T08:31:53;97035.25;;;15.42;100.00
57644;BME280;43474;46.510;6.686;2022-10-30T08:34:19;97037.53;;;15.61;100.00
57644;BME280;43474;46.510;6.686;2022-10-30T08:36:48;97032.38;;;15.76;100.00
57644;BME280;43474;46.510;6.686;2022-10-30T08:39:14;97042.47;;;15.69;100.00
57644;BME280;43474;46.510;6.686;2022-10-30T08:41:40;97009.22;;;15.06;100.00
57644;BME280;43474;46.510;6.686;2022-10-30T08:44:05;97016.50;;;14.88;100.00
57644;BME280;43474;46.510;6.686;2022-10-30T08:46:31;96987.47;;;14.48;100.00
57644;BME280;43474;46.510;6.686;2022-10-30T08:48:57;96999.28;;;14.18;100.00
57644;BME280;43474;46.510;6.686;2022-10-30T08:51:22;97019.53;;;14.36;100.00
57644;BME280;43474;46.510;6.686;2022-10-30T08:53:48;97029.97;;;14.21;100.00
57644;BME280;43474;46.510;6.686;2022-10-30T08:56:15;97010.53;;;14.04;100.00
57644;BME280;43474;46.510;6.686;2022-10-30T08:58:41;97043.69;;;14.30;100.00
57644;BME280;43474;46.510;6.686;2022-10-30T09:01:07;97055.16;;;14.30;100.00
57644;BME280;43474;46.510;6.686;2022-10-30T09:03:33;97045.78;;;14.44;100.00
57644;BME280;43474;46.510;6.686;2022-10-30T09:05:58;97060.81;;;14.67;100.00
57644;BME280;43474;46.510;6.686;2022-10-30T09:08:26;97035.47;;;14.48;100.00
57644;BME280;43474;46.510;6.686;2022-10-30T09:10:56;97047.16;;;14.47;100.00
57644;BME280;43474;46.510;6.686;2022-10-30T09:13:22;97057.09;;;14.52;100.00
57644;BME280;43474;46.510;6.686;2022-10-30T09:15:48;97052.34;;;14.54;100.00
57644;BME280;43474;46.510;6.686;2022-10-30T09:18:13;97018.16;;;14.51;100.00
57644;BME280;43474;46.510;6.686;2022-10-30T09:20:39;97010.28;;;14.61;100.00
57644;BME280;43474;46.510;6.686;2022-10-30T09:23:05;97029.34;;;14.69;100.00
57644;BME280;43474;46.510;6.686;2022-10-30T09:25:30;97052.25;;;14.87;100.00
57644;BME280;43474;46.510;6.686;2022-10-30T09:27:55;97047.38;;;15.06;100.00
57644;BME280;43474;46.510;6.686;2022-10-30T09:30:21;97045.94;;;15.69;100.00
57644;BME280;43474;46.510;6.686;2022-10-30T09:32:58;97053.47;;;16.05;100.00
57644;BME280;43474;46.510;6.686;2022-10-30T09:35:24;97034.63;;;16.21;100.00
57644;BME280;43474;46.510;6.686;2022-10-30T09:37:49;97024.03;;;16.89;100.00
57644;BME280;43474;46.510;6.686;2022-10-30T09:45:55;97029.03;;;18.55;100.00
57644;BME280;43474;46.510;6.686;2022-10-30T09:51:09;97037.56;;;18.68;100.00
57644;BME280;43474;46.510;6.686;2022-10-30T09:56:19;97045.44;;;18.03;100.00
57644;BME280;43474;46.510;6.686;2022-10-30T09:59:13;97045.34;;;18.64;100.00
57644;BME280;43474;46.510;6.686;2022-10-30T10:02:29;97007.09;;;18.07;100.00
57644;BME280;43474;46.510;6.686;2022-10-30T10:04:59;97005.22;;;17.98;100.00
57644;BME280;43474;46.510;6.686;2022-10-30T10:07:35;97046.19;;;18.59;100.00
57644;BME280;43474;46.510;6.686;2022-10-30T10:12:46;97034.41;;;18.50;100.00
57644;BME280;43474;46.510;6.686;2022-10-30T10:15:43;97037.69;;;17.91;100.00
57644;BME280;43474;46.510;6.686;2022-10-30T10:18:31;96994.09;;;17.02;100.00
57644;BME280;43474;46.510;6.686;2022-10-30T10:21:02;97001.59;;;17.05;100.00
57644;BME280;43474;46.510;6.686;2022-10-30T10:23:51;97050.81;;;16.94;100.00
57644;BME280;43474;46.510;6.686;2022-10-30T10:26:38;97044.63;;;16.84;100.00
57644;BME280;43474;46.510;6.686;2022-10-30T10:34:38;97031.13;;;17.26;100.00
57644;BME280;43474;46.510;6.686;2022-10-30T10:40:21;97038.19;;;18.24;100.00
57644;BME280;43474;46.510;6.686;2022-10-30T10:51:32;97008.19;;;17.96;100.00
57644;BME280;43474;46.510;6.686;2022-10-30T10:54:15;97036.56;;;17.62;100.00
57644;BME280;43474;46.510;6.686;2022-10-30T10:56:45;97035.75;;;17.51;100.00
57644;BME280;43474;46.510;6.686;2022-10-30T10:59:42;97015.88;;;17.42;100.00
57644;BME280;43474;46.510;6.686;2022-10-30T11:02:30;97038.63;;;17.34;100.00
57644;BME280;43474;46.510;6.686;2022-10-30T11:05:04;97004.06;;;17.22;100.00
57644;BME280;43474;46.510;6.686;2022-10-30T11:07:43;97030.13;;;17.68;100.00
57644;BME280;43474;46.510;6.686;2022-10-30T11:10:13;97016.22;;;17.96;100.00
57644;BME280;43474;46.510;6.686;2022-10-30T11:13:06;97018.78;;;18.63;100.00
57644;BME280;43474;46.510;6.686;2022-10-30T11:18:03;97004.59;;;19.27;100.00
57644;BME280;43474;46.510;6.686;2022-10-30T11:21:10;97011.09;;;19.65;100.00
57644;BME280;43474;46.510;6.686;2022-10-30T11:23:43;96983.97;;;19.56;100.00
57644;BME280;43474;46.510;6.686;2022-10-30T11:28:50;96982.06;;;19.57;100.00
57644;BME280;43474;46.510;6.686;2022-10-30T11:31:34;96959.84;;;19.46;100.00
57644;BME280;43474;46.510;6.686;2022-10-30T11:36:43;96945.28;;;19.52;100.00
57644;BME280;43474;46.510;6.686;2022-10-30T11:39:10;96965.91;;;19.67;100.00
57644;BME280;43474;46.510;6.686;2022-10-30T11:41:37;96956.56;;;19.59;100.00
57644;BME280;43474;46.510;6.686;2022-10-30T11:44:04;96984.91;;;19.36;100.00
57644;BME280;43474;46.510;6.686;2022-10-30T11:46:32;96931.53;;;18.75;100.00
57644;BME280;43474;46.510;6.686;2022-10-30T11:48:58;96984.84;;;18.97;100.00
57644;BME280;43474;46.510;6.686;2022-10-30T11:51:31;96990.44;;;19.11;100.00
57644;BME280;43474;46.510;6.686;2022-10-30T11:53:58;96937.78;;;19.10;100.00
57644;BME280;43474;46.510;6.686;2022-10-30T11:56:32;96954.84;;;19.34;100.00
57644;BME280;43474;46.510;6.686;2022-10-30T11:59:00;96939.22;;;19.36;100.00
57644;BME280;43474;46.510;6.686;2022-10-30T12:01:32;96942.66;;;19.42;100.00
57644;BME280;43474;46.510;6.686;2022-10-30T12:04:26;96962.38;;;19.72;100.00
57644;BME280;43474;46.510;6.686;2022-10-30T12:09:50;96938.03;;;19.87;100.00
57644;BME280;43474;46.510;6.686;2022-10-30T12:12:22;96957.59;;;19.93;100.00
57644;BME280;43474;46.510;6.686;2022-10-30T12:14:49;96956.31;;;19.90;100.00
57644;BME280;43474;46.510;6.686;2022-10-30T12:17:20;96953.06;;;19.88;100.00
57644;BME280;43474;46.510;6.686;2022-10-30T12:19:52;96954.59;;;19.99;100.00
57644;BME280;43474;46.510;6.686;2022-10-30T12:22:23;96954.38;;;19.96;100.00
57644;BME280;43474;46.510;6.686;2022-10-30T12:24:51;96946.00;;;19.97;100.00
57644;BME280;43474;46.510;6.686;2022-10-30T12:27:17;96934.63;;;19.76;100.00
57644;BME280;43474;46.510;6.686;2022-10-30T12:30:09;96953.28;;;19.97;100.00
57644;BME280;43474;46.510;6.686;2022-10-30T12:32:49;96941.16;;;19.99;100.00
57644;BME280;43474;46.510;6.686;2022-10-30T12:35:38;96950.91;;;19.90;100.00
57644;BME280;43474;46.510;6.686;2022-10-30T12:40:50;96948.41;;;19.99;100.00
57644;BME280;43474;46.510;6.686;2022-10-30T12:43:24;96888.16;;;19.36;100.00
57644;BME280;43474;46.510;6.686;2022-10-30T12:45:52;96872.56;;;19.33;100.00
57644;BME280;43474;46.510;6.686;2022-10-30T12:48:35;96934.47;;;19.62;100.00
57644;BME280;43474;46.510;6.686;2022-10-30T12:53:58;96930.19;;;19.56;100.00
57644;BME280;43474;46.510;6.686;2022-10-30T12:56:35;96914.69;;;19.43;100.00
57644;BME280;43474;46.510;6.686;2022-10-30T12:59:33;96931.28;;;19.16;100.00
57644;BME280;43474;46.510;6.686;2022-10-30T13:02:19;96927.56;;;19.12;100.00
57644;BME280;43474;46.510;6.686;2022-10-30T13:04:51;96916.34;;;19.05;100.00
57644;BME280;43474;46.510;6.686;2022-10-30T13:07:34;96906.78;;;19.23;100.00
57644;BME280;43474;46.510;6.686;2022-10-30T13:10:21;96874.00;;;19.26;100.00
57644;BME280;43474;46.510;6.686;2022-10-30T13:12:54;96906.28;;;19.55;100.00
57644;BME280;43474;46.510;6.686;2022-10-30T13:15:27;96891.25;;;19.49;100.00
57644;BME280;43474;46.510;6.686;2022-10-30T13:17:58;96877.09;;;19.38;100.00
57644;BME280;43474;46.510;6.686;2022-10-30T13:20:27;96885.63;;;19.50;100.00
57644;BME280;43474;46.510;6.686;2022-10-30T13:23:03;96897.72;;;19.82;100.00
57644;BME280;43474;46.510;6.686;2022-10-30T13:26:03;96899.50;;;19.62;100.00
57644;BME280;43474;46.510;6.686;2022-10-30T13:28:41;96886.44;;;19.51;100.00
57644;BME280;43474;46.510;6.686;2022-10-30T13:31:16;96896.78;;;19.68;100.00
57644;BME280;43474;46.510;6.686;2022-10-30T13:34:21;96898.78;;;19.52;100.00
57644;BME280;43474;46.510;6.686;2022-10-30T13:37:09;96871.78;;;19.33;100.00
57644;BME280;43474;46.510;6.686;2022-10-30T13:40:12;96894.00;;;19.04;100.00
57644;BME280;43474;46.510;6.686;2022-10-30T13:53:28;96869.94;;;18.29;100.00
57644;BME280;43474;46.510;6.686;2022-10-30T13:55:56;96881.66;;;18.49;100.00
57644;BME280;43474;46.510;6.686;2022-10-30T13:58:38;96888.69;;;18.40;100.00
57644;BME280;43474;46.510;6.686;2022-10-30T14:01:29;96828.19;;;18.08;100.00
57644;BME280;43474;46.510;6.686;2022-10-30T14:04:17;96898.56;;;18.49;100.00
57644;BME280;43474;46.510;6.686;2022-10-30T14:06:59;96894.00;;;18.55;100.00
57644;BME280;43474;46.510;6.686;2022-10-30T14:09:53;96871.75;;;18.49;100.00
57644;BME280;43474;46.510;6.686;2022-10-30T14:12:50;96884.22;;;18.79;100.00
57644;BME280;43474;46.510;6.686;2022-10-30T14:20:43;96882.94;;;18.72;100.00
57644;BME280;43474;46.510;6.686;2022-10-30T14:28:35;96878.09;;;18.74;100.00
57644;BME280;43474;46.510;6.686;2022-10-30T14:31:03;96874.91;;;18.62;100.00
57644;BME280;43474;46.510;6.686;2022-10-30T14:36:19;96857.53;;;18.44;100.00